createdAt,value
2022-10-13T00:00:47.330Z,97.44
2022-10-13T00:03:14.903Z,97.49
2022-10-13T00:05:42.608Z,97.30
2022-10-13T00:08:09.189Z,98.27
2022-10-13T00:10:39.007Z,97.94
2022-10-13T00:13:06.631Z,98.10
2022-10-13T00:15:33.323Z,98.09
2022-10-13T00:17:59.838Z,98.11
2022-10-13T00:20:26.438Z,97.97
2022-10-13T00:22:52.984Z,97.58
2022-10-13T00:25:19.503Z,97.39
2022-10-13T00:27:47.325Z,97.50
2022-10-13T00:30:13.903Z,97.91
2022-10-13T00:32:40.377Z,98.89
2022-10-13T00:35:07.401Z,98.44
2022-10-13T00:37:33.896Z,98.70
2022-10-13T00:40:00.425Z,98.64
2022-10-13T00:42:26.918Z,98.54
2022-10-13T00:45:05.227Z,98.73
2022-10-13T00:47:36.047Z,98.39
2022-10-13T00:50:03.377Z,99.07
2022-10-13T00:52:31.436Z,98.73
2022-10-13T00:54:59.215Z,98.53
2022-10-13T00:57:26.455Z,98.24
2022-10-13T00:59:53.093Z,98.20
2022-10-13T01:02:22.607Z,98.11
2022-10-13T01:04:50.119Z,97.89
2022-10-13T01:07:18.868Z,97.47
2022-10-13T01:09:45.395Z,97.31
2022-10-13T01:12:25.752Z,97.13
2022-10-13T01:14:59.940Z,96.84
2022-10-13T01:17:36.855Z,96.99
2022-10-13T01:20:25.185Z,97.23
2022-10-13T01:23:06.508Z,97.41
2022-10-13T01:25:52.137Z,97.13
2022-10-13T01:28:35.667Z,96.80
2022-10-13T01:31:13.515Z,96.99
2022-10-13T01:33:43.818Z,96.08
2022-10-13T01:36:20.373Z,95.90
2022-10-13T01:38:54.880Z,95.96
2022-10-13T01:41:27.470Z,96.10
2022-10-13T01:44:00.795Z,95.53
2022-10-13T01:46:30.947Z,95.66
2022-10-13T01:49:01.459Z,95.16
2022-10-13T01:51:30.547Z,94.84
2022-10-13T01:53:57.094Z,94.92
2022-10-13T01:56:23.798Z,94.65
2022-10-13T01:58:52.207Z,94.44
2022-10-13T02:01:32.676Z,93.60
2022-10-13T02:04:11.156Z,93.76
2022-10-13T02:06:41.133Z,94.29
2022-10-13T02:09:13.547Z,93.84
2022-10-13T02:11:49.215Z,93.66
2022-10-13T02:14:20.724Z,93.14
2022-10-13T02:16:50.600Z,93.52
2022-10-13T02:19:18.800Z,93.14
2022-10-13T02:21:46.786Z,92.72
2022-10-13T02:24:13.766Z,92.46
2022-10-13T02:26:41.486Z,92.57
2022-10-13T02:29:09.349Z,92.81
2022-10-13T02:31:36.025Z,93.29
2022-10-13T02:34:04.267Z,93.66
2022-10-13T02:36:30.983Z,93.79
2022-10-13T02:38:57.540Z,93.81
2022-10-13T02:41:24.013Z,93.94
2022-10-13T02:43:50.574Z,94.08
2022-10-13T02:46:17.088Z,93.72
2022-10-13T02:48:43.594Z,93.66
2022-10-13T02:51:11.438Z,93.44
2022-10-13T02:53:37.970Z,94.21
2022-10-13T02:56:04.702Z,95.14
2022-10-13T02:58:31.236Z,96.38
2022-10-13T03:01:05.938Z,96.98
2022-10-13T03:03:32.488Z,97.48
2022-10-13T03:05:59.008Z,96.79
2022-10-13T03:08:26.880Z,96.68
2022-10-13T03:10:53.384Z,96.76
2022-10-13T03:13:20.899Z,97.01
2022-10-13T03:15:47.399Z,96.98
2022-10-13T03:18:14.443Z,97.03
2022-10-13T03:20:41.008Z,96.74
2022-10-13T03:23:07.596Z,96.73
2022-10-13T03:25:36.091Z,96.79
2022-10-13T03:28:02.628Z,96.71
2022-10-13T03:30:29.185Z,96.54
2022-10-13T03:32:55.721Z,96.56
2022-10-13T03:35:22.221Z,96.64
2022-10-13T03:37:48.709Z,96.87
2022-10-13T03:40:15.371Z,97.14
2022-10-13T03:42:43.248Z,98.02
2022-10-13T03:45:10.384Z,98.06
2022-10-13T03:47:37.058Z,98.19
2022-10-13T03:50:04.491Z,98.53
2022-10-13T03:52:31.079Z,98.91
2022-10-13T03:54:58.383Z,99.08
2022-10-13T03:57:24.924Z,99.37
2022-10-13T03:59:52.935Z,99.50
2022-10-13T04:02:19.596Z,99.90
2022-10-13T04:04:46.370Z,100.00
2022-10-13T04:07:12.955Z,99.81
2022-10-13T04:09:39.542Z,99.81
2022-10-13T04:12:06.264Z,99.84
2022-10-13T04:14:32.911Z,99.52
2022-10-13T04:17:00.770Z,99.09
2022-10-13T04:19:27.363Z,98.95
2022-10-13T04:21:53.920Z,99.16
2022-10-13T04:24:20.490Z,99.09
2022-10-13T04:26:47.033Z,98.54
2022-10-13T04:29:13.601Z,98.23
2022-10-13T04:31:40.459Z,98.39
2022-10-13T04:34:08.508Z,98.73
2022-10-13T04:36:35.195Z,98.81
2022-10-13T04:39:01.794Z,98.36
2022-10-13T04:41:28.400Z,98.28
2022-10-13T04:43:55.135Z,98.03
2022-10-13T04:46:24.052Z,98.53
2022-10-13T04:48:51.130Z,98.64
2022-10-13T04:51:21.343Z,99.03
2022-10-13T04:53:47.925Z,98.84
2022-10-13T04:56:16.864Z,98.68
2022-10-13T04:58:44.805Z,98.44
2022-10-13T05:01:17.645Z,98.01
2022-10-13T05:03:47.113Z,98.16
2022-10-13T05:06:14.788Z,98.36
2022-10-13T05:08:42.684Z,98.42
2022-10-13T05:11:09.408Z,98.73
2022-10-13T05:13:36.590Z,98.41
2022-10-13T05:16:06.507Z,98.83
2022-10-13T05:18:33.056Z,98.73
2022-10-13T05:21:06.489Z,99.50
2022-10-13T05:23:33.030Z,99.08
2022-10-13T05:26:03.117Z,99.29
2022-10-13T05:28:29.698Z,99.76
2022-10-13T05:30:56.277Z,99.71
2022-10-13T05:33:22.793Z,99.53
2022-10-13T05:35:49.350Z,99.06
2022-10-13T05:38:15.877Z,99.07
2022-10-13T05:40:42.441Z,98.77
2022-10-13T05:43:10.306Z,99.21
2022-10-13T05:45:36.874Z,99.41
2022-10-13T05:48:03.684Z,100.00
2022-10-13T05:50:30.262Z,100.00
2022-10-13T05:52:57.135Z,100.00
2022-10-13T05:55:23.793Z,100.00
2022-10-13T05:57:52.191Z,99.76
2022-10-13T06:00:20.467Z,99.18
2022-10-13T06:02:51.375Z,98.81
2022-10-13T06:05:19.823Z,98.97
2022-10-13T06:07:47.283Z,98.23
2022-10-13T06:10:14.586Z,98.45
2022-10-13T06:12:41.363Z,98.06
2022-10-13T06:15:09.135Z,97.92
2022-10-13T06:17:37.306Z,97.63
2022-10-13T06:20:04.498Z,96.95
2022-10-13T06:22:31.040Z,96.99
2022-10-13T06:24:57.597Z,96.52
2022-10-13T06:27:24.202Z,96.75
2022-10-13T06:29:50.751Z,96.44
2022-10-13T06:32:17.610Z,96.87
2022-10-13T06:34:45.792Z,96.60
2022-10-13T06:37:12.340Z,96.28
2022-10-13T06:39:38.884Z,95.98
2022-10-13T06:42:05.502Z,95.28
2022-10-13T06:44:32.364Z,95.26
2022-10-13T06:46:58.880Z,95.33
2022-10-13T06:49:25.519Z,94.57
2022-10-13T06:51:53.380Z,94.79
2022-10-13T06:54:19.958Z,93.28
2022-10-13T06:56:46.500Z,92.44
2022-10-13T06:59:13.275Z,92.41
2022-10-13T07:01:41.660Z,92.53
2022-10-13T07:04:08.451Z,91.38
2022-10-13T07:06:35.198Z,91.03
2022-10-13T07:09:04.669Z,90.83
2022-10-13T07:11:31.258Z,89.23
2022-10-13T07:13:57.903Z,89.81
2022-10-13T07:16:24.504Z,90.28
2022-10-13T07:18:51.241Z,90.28
2022-10-13T07:21:17.969Z,89.46
2022-10-13T07:23:44.834Z,89.29
2022-10-13T07:26:14.993Z,88.27
2022-10-13T07:28:43.147Z,89.10
2022-10-13T07:31:11.082Z,88.75
2022-10-13T07:33:38.294Z,88.41
2022-10-13T07:36:05.254Z,88.26
2022-10-13T07:38:31.916Z,88.04
2022-10-13T07:41:00.585Z,88.08
2022-10-13T07:43:28.565Z,87.29
2022-10-13T07:45:55.240Z,86.69
2022-10-13T07:50:49.238Z,86.18
2022-10-13T07:53:15.764Z,86.22
2022-10-13T07:55:42.314Z,86.00
2022-10-13T07:58:09.024Z,86.49
2022-10-13T08:00:36.971Z,85.85
2022-10-13T08:03:03.614Z,86.22
2022-10-13T08:05:30.164Z,86.09
2022-10-13T08:07:58.468Z,86.59
2022-10-13T08:10:25.645Z,86.07
2022-10-13T08:12:52.176Z,85.65
2022-10-13T08:15:18.936Z,85.37
2022-10-13T08:17:46.945Z,85.50
2022-10-13T08:20:13.572Z,85.29
2022-10-13T08:22:40.100Z,84.77
2022-10-13T08:25:07.520Z,83.77
2022-10-13T08:27:50.312Z,82.95
2022-10-13T08:30:18.054Z,82.93
2022-10-13T08:32:44.646Z,83.52
2022-10-13T08:35:13.287Z,82.22
2022-10-13T08:37:39.840Z,83.18
2022-10-13T08:40:07.783Z,83.38
2022-10-13T08:42:34.683Z,83.76
2022-10-13T08:45:36.152Z,83.82
2022-10-13T08:47:54.729Z,82.69
2022-10-13T08:50:26.900Z,83.32
2022-10-13T08:52:57.159Z,84.16
2022-10-13T08:55:31.537Z,83.98
2022-10-13T08:57:58.527Z,84.89
2022-10-13T09:00:25.103Z,86.42
2022-10-13T09:02:52.973Z,86.73
2022-10-13T09:05:37.250Z,85.28
2022-10-13T09:08:14.814Z,84.70
2022-10-13T09:10:48.776Z,86.22
2022-10-13T09:13:15.322Z,86.22
2022-10-13T09:15:46.517Z,86.49
2022-10-13T09:18:14.319Z,85.69
2022-10-13T09:20:42.729Z,86.36
2022-10-13T09:23:18.875Z,86.98
2022-10-13T09:25:48.101Z,85.04
2022-10-13T09:28:18.603Z,85.44
2022-10-13T09:30:46.811Z,85.34
2022-10-13T09:33:22.002Z,85.49
2022-10-13T09:36:06.833Z,86.51
2022-10-13T09:38:33.814Z,85.75
2022-10-13T09:41:02.819Z,84.83
2022-10-13T09:43:31.973Z,86.34
2022-10-13T09:46:00.858Z,85.61
2022-10-13T09:48:29.793Z,85.21
2022-10-13T09:50:58.475Z,84.15
2022-10-13T09:53:30.218Z,83.97
2022-10-13T09:56:17.451Z,84.61
2022-10-13T09:58:49.753Z,83.81
2022-10-13T10:01:21.782Z,84.15
2022-10-13T10:03:49.408Z,83.01
2022-10-13T10:06:17.874Z,83.85
2022-10-13T10:09:05.253Z,84.31
2022-10-13T10:11:37.384Z,84.32
2022-10-13T10:14:09.646Z,85.07
2022-10-13T10:16:42.580Z,85.62
2022-10-13T10:19:18.908Z,84.77
2022-10-13T10:21:54.307Z,85.49
2022-10-13T10:24:31.944Z,84.35
2022-10-13T10:27:01.578Z,85.56
2022-10-13T10:29:40.280Z,85.71
2022-10-13T10:32:27.717Z,86.25
2022-10-13T10:35:00.109Z,85.88
2022-10-13T10:37:45.737Z,85.94
2022-10-13T10:40:26.956Z,85.93
2022-10-13T10:43:09.717Z,85.17
2022-10-13T10:45:39.373Z,85.59
2022-10-13T10:48:16.175Z,85.39
2022-10-13T10:50:42.887Z,85.61
2022-10-13T10:53:18.627Z,85.75
2022-10-13T10:55:52.175Z,85.90
2022-10-13T10:58:26.868Z,85.04
2022-10-13T11:01:02.516Z,85.89
2022-10-13T11:03:39.891Z,85.38
2022-10-13T11:06:22.729Z,84.36
2022-10-13T11:08:50.727Z,84.37
2022-10-13T11:11:36.434Z,83.46
2022-10-13T11:14:30.549Z,83.56
2022-10-13T11:17:15.840Z,84.57
2022-10-13T11:19:42.454Z,85.20
2022-10-13T11:22:17.938Z,85.41
2022-10-13T11:24:55.128Z,86.35
2022-10-13T11:27:40.380Z,86.48
2022-10-13T11:30:39.591Z,86.12
2022-10-13T11:33:33.066Z,86.37
2022-10-13T11:36:36.711Z,86.40
2022-10-13T11:39:19.124Z,85.99
2022-10-13T11:41:54.828Z,86.14
2022-10-13T11:44:30.589Z,85.58
2022-10-13T11:47:08.761Z,84.62
2022-10-13T11:49:53.100Z,84.19
2022-10-13T11:52:53.948Z,83.03
2022-10-13T11:55:33.969Z,83.27
2022-10-13T11:58:14.307Z,84.83
2022-10-13T12:00:51.058Z,84.47
2022-10-13T12:03:22.547Z,84.13
2022-10-13T12:05:51.315Z,84.05
2022-10-13T12:08:19.454Z,84.40
2022-10-13T12:10:46.292Z,84.27
2022-10-13T12:13:21.846Z,83.66
2022-10-13T12:15:48.538Z,83.82
2022-10-13T12:18:24.168Z,83.62
2022-10-13T12:20:56.975Z,82.93
2022-10-13T12:23:23.822Z,82.92
2022-10-13T12:25:52.776Z,83.61
2022-10-13T12:28:19.902Z,83.03
2022-10-13T12:30:52.817Z,81.39
2022-10-13T12:33:25.851Z,82.96
2022-10-13T12:35:52.494Z,83.05
2022-10-13T12:38:22.295Z,83.51
2022-10-13T12:40:50.947Z,83.73
2022-10-13T12:43:20.213Z,83.34
2022-10-13T12:45:46.990Z,83.10
2022-10-13T12:48:31.234Z,82.79
2022-10-13T12:51:18.377Z,81.65
2022-10-13T12:53:47.855Z,81.03
2022-10-13T12:56:27.372Z,81.36
2022-10-13T12:58:54.626Z,81.10
2022-10-13T13:01:31.825Z,79.83
2022-10-13T13:04:01.652Z,80.17
2022-10-13T13:06:37.098Z,82.19
2022-10-13T13:09:30.176Z,81.12
2022-10-13T13:12:05.626Z,81.85
2022-10-13T13:14:36.447Z,82.56
2022-10-13T13:17:05.870Z,82.08
2022-10-13T13:19:33.027Z,80.99
2022-10-13T13:21:59.668Z,81.84
2022-10-13T13:24:35.868Z,81.49
2022-10-13T13:27:18.405Z,80.11
2022-10-13T13:29:45.956Z,81.59
2022-10-13T13:32:14.290Z,80.48
2022-10-13T13:34:41.075Z,79.70
2022-10-13T13:37:14.006Z,79.92
2022-10-13T13:39:40.546Z,80.85
2022-10-13T13:42:13.981Z,79.56
2022-10-13T13:44:42.020Z,80.46
2022-10-13T13:47:17.226Z,80.45
2022-10-13T13:49:44.201Z,79.98
2022-10-13T13:52:10.752Z,80.87
2022-10-13T13:54:37.394Z,80.15
2022-10-13T13:57:04.270Z,80.37
2022-10-13T13:59:30.910Z,81.41
2022-10-13T14:01:59.006Z,80.76
2022-10-13T14:04:25.609Z,80.87
2022-10-13T14:06:52.264Z,80.29
2022-10-13T14:09:18.864Z,79.69
2022-10-13T14:11:45.439Z,79.34
2022-10-13T14:14:12.077Z,80.32
2022-10-13T14:16:38.672Z,80.27
2022-10-13T14:19:06.647Z,80.34
2022-10-13T14:21:33.196Z,80.44
2022-10-13T14:23:59.772Z,79.00
2022-10-13T14:26:26.398Z,78.21
2022-10-13T14:28:53.012Z,78.01
2022-10-13T14:31:19.578Z,79.18
2022-10-13T14:33:48.703Z,78.93
2022-10-13T14:36:18.759Z,78.76
2022-10-13T14:38:45.319Z,79.01
2022-10-13T14:41:11.872Z,79.27
2022-10-13T14:43:38.420Z,77.93
2022-10-13T14:46:06.268Z,78.01
2022-10-13T14:48:33.645Z,78.17
2022-10-13T14:51:03.925Z,77.95
2022-10-13T14:53:34.386Z,77.49
2022-10-13T14:56:00.941Z,76.75
2022-10-13T14:58:27.574Z,77.50
2022-10-13T15:00:54.151Z,77.37
2022-10-13T15:03:20.759Z,78.44
2022-10-13T15:05:47.383Z,78.47
2022-10-13T15:08:13.929Z,77.87
2022-10-13T15:10:41.823Z,78.03
2022-10-13T15:13:08.353Z,78.01
2022-10-13T15:15:34.911Z,78.03
2022-10-13T15:18:01.468Z,78.15
2022-10-13T15:20:28.007Z,78.44
2022-10-13T15:22:54.574Z,78.67
2022-10-13T15:25:21.146Z,79.36
2022-10-13T15:27:49.065Z,78.23
2022-10-13T15:30:15.739Z,78.39
2022-10-13T15:32:42.303Z,78.42
2022-10-13T15:35:09.198Z,78.93
2022-10-13T15:37:35.746Z,79.07
2022-10-13T15:40:02.353Z,79.30
2022-10-13T15:42:28.883Z,79.66
2022-10-13T15:45:09.383Z,79.40
2022-10-13T15:47:36.852Z,78.95
2022-10-13T15:50:04.126Z,79.04
2022-10-13T15:52:34.642Z,79.61
2022-10-13T15:55:01.672Z,79.91
2022-10-13T15:57:28.359Z,80.11
2022-10-13T15:59:56.248Z,80.13
2022-10-13T16:02:23.196Z,80.35
2022-10-13T16:04:50.125Z,80.09
2022-10-13T16:07:16.683Z,79.90
2022-10-13T16:09:43.239Z,79.80
2022-10-13T16:12:09.808Z,81.86
2022-10-13T16:14:36.374Z,81.70
2022-10-13T16:17:04.299Z,82.08
2022-10-13T16:19:30.862Z,82.56
2022-10-13T16:21:57.446Z,82.84
2022-10-13T16:24:24.119Z,83.27
2022-10-13T16:26:50.651Z,83.80
2022-10-13T16:29:17.220Z,84.34
2022-10-13T16:31:43.760Z,84.06
2022-10-13T16:34:11.877Z,84.36
2022-10-13T16:36:38.431Z,84.26
2022-10-13T16:39:05.008Z,84.92
2022-10-13T16:41:31.567Z,85.24
2022-10-13T16:43:58.142Z,85.38
2022-10-13T16:46:24.703Z,85.00
2022-10-13T16:48:51.279Z,84.95
2022-10-13T16:51:21.591Z,85.10
2022-10-13T16:53:48.351Z,85.67
2022-10-13T16:56:15.362Z,85.87
2022-10-13T16:58:41.946Z,85.79
2022-10-13T17:01:09.762Z,85.98
2022-10-13T17:03:36.769Z,86.36
2022-10-13T17:06:03.788Z,85.87
2022-10-13T17:08:31.759Z,86.60
2022-10-13T17:10:59.653Z,86.38
2022-10-13T17:13:26.218Z,86.96
2022-10-13T17:15:54.192Z,87.29
2022-10-13T17:18:21.199Z,87.74
2022-10-13T17:20:51.729Z,87.89
2022-10-13T17:23:18.335Z,88.04
2022-10-13T17:25:46.319Z,87.90
2022-10-13T17:28:13.067Z,88.52
2022-10-13T17:30:39.711Z,88.93
2022-10-13T17:33:06.406Z,90.05
2022-10-13T17:35:33.205Z,89.67
2022-10-13T17:37:59.765Z,90.49
2022-10-13T17:40:26.500Z,90.25
2022-10-13T17:42:54.423Z,90.22
2022-10-13T17:45:20.997Z,90.38
2022-10-13T17:47:48.239Z,90.76
2022-10-13T17:50:14.979Z,91.35
2022-10-13T17:52:41.546Z,92.14
2022-10-13T17:55:08.983Z,92.26
2022-10-13T17:57:35.546Z,91.78
2022-10-13T18:00:04.916Z,91.99
2022-10-13T18:02:31.454Z,92.45
2022-10-13T18:04:58.025Z,92.43
2022-10-13T18:07:24.587Z,92.48
2022-10-13T18:09:51.300Z,92.93
2022-10-13T18:12:17.883Z,92.89
2022-10-13T18:14:44.670Z,92.87
2022-10-13T18:17:12.612Z,93.46
2022-10-13T18:19:40.415Z,93.17
2022-10-13T18:22:07.295Z,92.81
2022-10-13T18:24:33.875Z,92.55
2022-10-13T18:27:00.433Z,92.36
2022-10-13T18:29:27.072Z,92.63
2022-10-13T18:31:55.057Z,92.50
2022-10-13T18:34:23.003Z,92.59
2022-10-13T18:36:51.068Z,91.89
2022-10-13T18:39:19.207Z,91.99
2022-10-13T18:41:46.876Z,92.56
2022-10-13T18:44:13.987Z,92.68
2022-10-13T18:46:40.832Z,93.20
2022-10-13T18:49:11.134Z,93.60
2022-10-13T18:51:39.195Z,93.58
2022-10-13T18:54:06.320Z,93.84
2022-10-13T18:56:34.019Z,94.13
2022-10-13T18:59:01.827Z,94.50
2022-10-13T19:01:30.035Z,94.58
2022-10-13T19:03:57.364Z,94.34
2022-10-13T19:06:26.211Z,94.64
2022-10-13T19:08:56.051Z,94.72
2022-10-13T19:11:24.071Z,94.50
2022-10-13T19:13:51.278Z,94.13
2022-10-13T19:16:19.949Z,94.46
2022-10-13T19:18:47.105Z,94.50
2022-10-13T19:21:14.040Z,94.48
2022-10-13T19:23:40.746Z,94.43
2022-10-13T19:26:14.766Z,94.23
2022-10-13T19:28:42.209Z,94.28
2022-10-13T19:31:09.357Z,93.78
2022-10-13T19:33:38.658Z,94.10
2022-10-13T19:36:09.501Z,94.04
2022-10-13T19:38:36.933Z,94.32
2022-10-13T19:41:06.593Z,94.48
2022-10-13T19:43:34.591Z,94.59
2022-10-13T19:46:01.148Z,94.24
2022-10-13T19:48:27.781Z,94.10
2022-10-13T19:50:54.427Z,94.43
2022-10-13T19:53:21.001Z,94.26
2022-10-13T19:55:48.330Z,94.75
2022-10-13T19:58:15.842Z,94.88
2022-10-13T20:00:44.963Z,94.76
2022-10-13T20:03:12.229Z,94.63
2022-10-13T20:05:39.607Z,94.54
2022-10-13T20:08:06.782Z,94.41
2022-10-13T20:10:33.822Z,94.52
2022-10-13T20:13:00.816Z,94.72
2022-10-13T20:15:27.347Z,94.74
2022-10-13T20:17:55.286Z,95.22
2022-10-13T20:20:22.597Z,95.21
2022-10-13T20:22:49.230Z,94.86
2022-10-13T20:25:15.758Z,95.11
2022-10-13T20:27:42.346Z,95.54
2022-10-13T20:30:09.913Z,95.30
2022-10-13T20:32:36.530Z,95.28
2022-10-13T20:35:05.533Z,95.59
2022-10-13T20:37:32.910Z,95.37
2022-10-13T20:39:59.440Z,95.27
2022-10-13T20:42:25.984Z,95.24
2022-10-13T20:44:52.583Z,95.30
2022-10-13T20:47:19.524Z,95.72
2022-10-13T20:49:46.228Z,95.46
2022-10-13T20:52:14.158Z,96.03
2022-10-13T20:54:40.680Z,96.22
2022-10-13T20:57:07.301Z,96.36
2022-10-13T20:59:33.863Z,95.68
2022-10-13T21:02:00.428Z,95.61
2022-10-13T21:04:27.028Z,95.46
2022-10-13T21:06:53.558Z,96.14
2022-10-13T21:09:21.471Z,96.17
2022-10-13T21:11:48.033Z,95.87
2022-10-13T21:14:14.579Z,95.67
2022-10-13T21:16:41.137Z,95.54
2022-10-13T21:19:07.959Z,95.52
2022-10-13T21:21:34.707Z,95.49
2022-10-13T21:24:04.131Z,95.01
2022-10-13T21:26:32.752Z,94.46
2022-10-13T21:29:00.766Z,94.71
2022-10-13T21:31:28.541Z,95.04
2022-10-13T21:33:55.646Z,95.36
2022-10-13T21:36:23.816Z,95.28
2022-10-13T21:38:52.725Z,95.62
2022-10-13T21:41:19.360Z,95.74
2022-10-13T21:43:47.444Z,95.76
2022-10-13T21:46:16.738Z,96.16
2022-10-13T21:48:43.785Z,96.19
2022-10-13T21:51:12.722Z,96.30
2022-10-13T21:53:39.302Z,96.56
2022-10-13T21:56:06.788Z,97.01
2022-10-13T21:58:33.428Z,98.20
2022-10-13T22:01:01.821Z,98.24
2022-10-13T22:03:28.465Z,97.70
2022-10-13T22:05:55.068Z,98.24
2022-10-13T22:08:32.827Z,98.28
2022-10-13T22:11:05.036Z,97.98
2022-10-13T22:13:32.052Z,98.01
2022-10-13T22:16:03.647Z,99.38
2022-10-13T22:18:30.320Z,99.13
2022-10-13T22:21:00.785Z,98.92
2022-10-13T22:23:27.364Z,98.64
2022-10-13T22:25:53.889Z,98.52
2022-10-13T22:28:20.866Z,98.31
2022-10-13T22:30:47.937Z,98.20
2022-10-13T22:33:15.915Z,98.13
2022-10-13T22:35:42.474Z,98.18
2022-10-13T22:38:09.015Z,97.89
2022-10-13T22:40:35.749Z,98.00
2022-10-13T22:43:02.315Z,97.74
2022-10-13T22:45:28.875Z,97.46
2022-10-13T22:47:55.427Z,97.50
2022-10-13T22:50:23.535Z,97.13
2022-10-13T22:52:50.363Z,96.88
2022-10-13T22:55:17.083Z,96.87
2022-10-13T22:57:43.633Z,97.00
2022-10-13T23:00:11.105Z,98.10
2022-10-13T23:02:37.674Z,98.59
2022-10-13T23:05:04.868Z,98.61
2022-10-13T23:07:32.784Z,98.38
2022-10-13T23:09:59.343Z,97.93
2022-10-13T23:12:25.875Z,97.96
2022-10-13T23:14:52.433Z,97.73
2022-10-13T23:17:19.230Z,97.54
2022-10-13T23:19:46.016Z,97.72
2022-10-13T23:22:12.549Z,98.58
2022-10-13T23:24:40.447Z,99.79
2022-10-13T23:27:06.983Z,99.85
2022-10-13T23:29:33.551Z,100.00
2022-10-13T23:32:00.090Z,99.59
2022-10-13T23:34:26.640Z,99.62
2022-10-13T23:36:53.170Z,99.62
2022-10-13T23:39:19.774Z,100.00
2022-10-13T23:41:47.733Z,99.92
2022-10-13T23:44:14.274Z,100.00
2022-10-13T23:46:40.835Z,99.95
2022-10-13T23:49:08.600Z,99.99
2022-10-13T23:51:35.129Z,100.00
2022-10-13T23:54:01.703Z,100.00
2022-10-13T23:56:28.244Z,100.00
2022-10-13T23:58:56.153Z,100.00
